This is the latest recevied weather packets stored in our database for station/object UA1CAS-13. If no packets are shown the sender has not sent any weather packets the latest 10 day(s).
| Time | Temp. | Humidity | Pressure | Rain* | Wind** | Luminosity | Snow |
|---|---|---|---|---|---|---|---|
| 1777903151 | 11.11° C | 100% | 999 hPa | - | - | - | - |
| 1777902250 | 11.11° C | 100% | 999 hPa | - | - | - | - |
| 1777901349 | 11.11° C | 100% | 999 hPa | - | - | - | - |
| 1777900448 | 11.11° C | 100% | 1000 hPa | - | - | - | - |
| 1777899547 | 10.56° C | 100% | 1000 hPa | - | - | - | - |
| 1777898646 | 10.56° C | 100% | 1000 hPa | - | - | - | - |
| 1777897745 | 9.44° C | 100% | 1000 hPa | - | - | - | - |
| 1777896844 | 9.44° C | 96% | 1001 hPa | - | - | - | - |
| 1777895943 | 9.44° C | 91% | 1001 hPa | - | - | - | - |
| 1777895041 | 9.44° C | 85% | 1001 hPa | - | - | - | - |
| 1777894140 | 10° C | 79% | 1001 hPa | - | - | - | - |
| 1777893239 | 11.11° C | 75% | 1001 hPa | - | - | - | - |
| 1777892338 | 12.78° C | 70% | 1001 hPa | - | - | - | - |
| 1777891436 | 13.89° C | 65% | 1001 hPa | - | - | - | - |
| 1777890535 | 13.33° C | 67% | 1002 hPa | - | - | - | - |
| 1777889634 | 13.89° C | 66% | 1002 hPa | - | - | - | - |
| 1777888733 | 13.89° C | 66% | 1002 hPa | - | - | - | - |
| 1777887832 | 11.67° C | 74% | 1002 hPa | - | - | - | - |
| 1777886931 | 12.22° C | 71% | 1003 hPa | - | - | - | - |
| 1777886030 | 14.44° C | 63% | 1002 hPa | - | - | - | - |
| 1777885129 | 13.33° C | 67% | 1003 hPa | - | - | - | - |
| 1777884228 | 13.33° C | 70% | 1003 hPa | - | - | - | - |
| 1777883327 | 12.22° C | 73% | 1003 hPa | - | - | - | - |
| 1777882426 | 12.22° C | 74% | 1003 hPa | - | - | - | - |
| 1777881525 | 12.78° C | 72% | 1003 hPa | - | - | - | - |
* Rain since midnight (hover to see other rain measurements)
** Current wind speed in m/s (hover to see current wind gust speed)